Time;durP1;ratioP1;P1;durP2;ratioP2;P2;SDS_P1;SDS_P2;PMS_P1;PMS_P2;Temp;Humidity;BMP_temperature;BMP_pressure;BME280_temperature;BME280_humidity;BME280_pressure;Samples;Min_cycle;Max_cycle;Signal;HPM_P1;HPM_P2
2024/02/15 00:00:43;0.00;0.00;0.62;0.00;0.00;0.62;3.30;2.50;;;22.90;28.30;;;;;;2260613;61;20440;-68
2024/02/15 00:03:27;0.00;0.00;0.62;0.00;0.00;0.62;3.03;2.40;;;22.90;28.30;;;;;;2260289;61;20830;-70
2024/02/15 00:06:12;0.00;0.00;0.62;0.00;0.00;0.62;3.20;2.10;;;22.90;28.30;;;;;;2260296;61;20404;-68
2024/02/15 00:08:56;0.00;0.00;0.62;0.00;0.00;0.62;2.90;1.90;;;22.90;28.30;;;;;;2260633;61;20926;-69
2024/02/15 00:11:41;0.00;0.00;0.62;0.00;0.00;0.62;3.30;1.80;;;22.90;28.30;;;;;;2260732;61;20381;-69
2024/02/15 00:14:31;0.00;0.00;0.62;0.00;0.00;0.62;2.57;1.97;;;22.90;28.30;;;;;;2260232;61;20372;-69
2024/02/15 00:17:16;0.00;0.00;0.62;0.00;0.00;0.62;2.90;2.20;;;22.90;28.30;;;;;;2260476;61;20400;-68
2024/02/15 00:20:00;0.00;0.00;0.62;0.00;0.00;0.62;3.07;2.10;;;23.00;28.30;;;;;;2260467;61;20396;-69
2024/02/15 00:22:47;0.00;0.00;0.62;0.00;0.00;0.62;2.73;2.13;;;23.00;28.30;;;;;;2276496;48;20876;-67
2024/02/15 00:25:32;0.00;0.00;0.62;0.00;0.00;0.62;2.70;2.13;;;22.90;28.30;;;;;;2259295;61;20419;-66
2024/02/15 00:28:17;0.00;0.00;0.62;0.00;0.00;0.62;2.90;2.10;;;23.00;28.40;;;;;;2259709;61;20360;-66
2024/02/15 00:31:03;0.00;0.00;0.62;0.00;0.00;0.62;2.30;1.70;;;22.90;28.30;;;;;;2259147;61;20811;-67
2024/02/15 00:33:48;0.00;0.00;0.62;0.00;0.00;0.62;2.90;1.90;;;23.00;28.40;;;;;;2259275;61;20410;-66
2024/02/15 00:36:33;0.00;0.00;0.62;0.00;0.00;0.62;2.73;1.83;;;23.00;28.40;;;;;;2259691;61;20439;-66
2024/02/15 00:39:18;0.00;0.00;0.62;0.00;0.00;0.62;2.03;1.60;;;23.00;28.30;;;;;;2259439;61;20389;-66
2024/02/15 00:42:03;0.00;0.00;0.62;0.00;0.00;0.62;2.50;1.80;;;23.00;28.40;;;;;;2259069;61;20435;-67
2024/02/15 00:44:48;0.00;0.00;0.62;0.00;0.00;0.62;2.47;1.70;;;23.00;28.30;;;;;;2259491;61;20503;-66
2024/02/15 00:47:34;0.00;0.00;0.62;0.00;0.00;0.62;2.60;1.77;;;23.00;28.40;;;;;;2259481;61;20934;-66
2024/02/15 00:50:19;0.00;0.00;0.62;0.00;0.00;0.62;2.20;1.50;;;22.90;28.30;;;;;;2259769;61;20365;-66
2024/02/15 00:53:04;0.00;0.00;0.62;0.00;0.00;0.62;2.37;1.70;;;22.90;28.30;;;;;;2259709;61;20801;-67
2024/02/15 00:55:48;0.00;0.00;0.62;0.00;0.00;0.62;2.80;1.73;;;22.90;28.30;;;;;;2259354;61;20419;-67
2024/02/15 00:58:33;0.00;0.00;0.62;0.00;0.00;0.62;2.40;1.80;;;22.90;28.30;;;;;;2259727;61;20381;-67
2024/02/15 01:01:17;0.00;0.00;0.62;0.00;0.00;0.62;2.20;1.60;;;22.90;28.30;;;;;;2259329;61;20447;-67
2024/02/15 01:04:04;0.00;0.00;0.62;0.00;0.00;0.62;2.43;1.80;;;23.00;28.40;;;;;;2259552;61;20789;-67
2024/02/15 01:06:49;0.00;0.00;0.62;0.00;0.00;0.62;2.23;1.63;;;23.00;28.40;;;;;;2259912;61;20907;-67
2024/02/15 01:09:33;0.00;0.00;0.62;0.00;0.00;0.62;2.20;1.67;;;23.00;28.40;;;;;;2259283;61;20384;-67
2024/02/15 01:12:18;0.00;0.00;0.62;0.00;0.00;0.62;2.40;1.60;;;22.90;28.30;;;;;;2259552;61;20932;-66
2024/02/15 01:15:04;0.00;0.00;0.62;0.00;0.00;0.62;2.07;1.57;;;23.00;28.40;;;;;;2259261;61;20400;-66
2024/02/15 01:17:49;0.00;0.00;0.62;0.00;0.00;0.62;2.40;1.87;;;23.00;28.40;;;;;;2259297;61;20386;-66
2024/02/15 01:20:36;0.00;0.00;0.62;0.00;0.00;0.62;2.37;1.70;;;23.00;28.40;;;;;;2259562;61;20392;-66
2024/02/15 01:23:22;0.00;0.00;0.62;0.00;0.00;0.62;2.73;2.20;;;23.00;28.40;;;;;;2259277;61;20353;-66
2024/02/15 01:26:06;0.00;0.00;0.62;0.00;0.00;0.62;2.00;1.43;;;23.00;28.40;;;;;;2259391;61;20368;-66
2024/02/15 01:28:51;0.00;0.00;0.62;0.00;0.00;0.62;2.13;1.60;;;23.00;28.40;;;;;;2259576;61;20341;-67
2024/02/15 01:31:35;0.00;0.00;0.62;0.00;0.00;0.62;2.37;1.70;;;23.00;28.40;;;;;;2259355;61;20473;-67
2024/02/15 01:34:21;0.00;0.00;0.62;0.00;0.00;0.62;2.20;1.63;;;22.90;28.30;;;;;;2259369;61;20365;-66
2024/02/15 01:37:07;0.00;0.00;0.62;0.00;0.00;0.62;1.90;1.50;;;23.00;28.30;;;;;;2259520;61;20899;-66
2024/02/15 01:39:52;0.00;0.00;0.62;0.00;0.00;0.62;2.17;1.53;;;23.00;28.40;;;;;;2259166;61;20408;-66
2024/02/15 01:42:36;0.00;0.00;0.62;0.00;0.00;0.62;2.00;1.50;;;23.00;28.30;;;;;;2259658;61;20387;-66
2024/02/15 01:45:21;0.00;0.00;0.62;0.00;0.00;0.62;3.27;1.40;;;23.00;28.40;;;;;;2259183;61;20488;-67
2024/02/15 01:48:07;0.00;0.00;0.62;0.00;0.00;0.62;2.17;1.53;;;23.00;28.40;;;;;;2258853;61;20776;-67
2024/02/15 01:50:52;0.00;0.00;0.62;0.00;0.00;0.62;2.70;1.53;;;23.00;28.40;;;;;;2259536;61;20360;-67
2024/02/15 01:53:38;0.00;0.00;0.62;0.00;0.00;0.62;2.00;1.50;;;23.00;28.40;;;;;;2259318;61;20555;-67
2024/02/15 01:56:25;0.00;0.00;0.62;0.00;0.00;0.62;2.07;1.50;;;23.00;28.40;;;;;;2259469;61;20907;-67
2024/02/15 01:59:12;0.00;0.00;0.62;0.00;0.00;0.62;2.23;1.40;;;23.00;28.40;;;;;;2259568;61;20420;-67
2024/02/15 02:01:56;0.00;0.00;0.62;0.00;0.00;0.62;2.30;1.53;;;23.00;28.30;;;;;;2259301;61;21005;-67
2024/02/15 02:04:41;0.00;0.00;0.62;0.00;0.00;0.62;1.97;1.30;;;23.00;28.40;;;;;;2259510;61;20388;-67
2024/02/15 02:07:26;0.00;0.00;0.62;0.00;0.00;0.62;1.90;1.50;;;23.00;28.60;;;;;;2259516;61;20408;-67
2024/02/15 02:10:12;0.00;0.00;0.62;0.00;0.00;0.62;1.80;1.20;;;23.00;28.30;;;;;;2259400;61;20415;-67
2024/02/15 02:12:57;0.00;0.00;0.62;0.00;0.00;0.62;3.80;1.57;;;23.00;28.40;;;;;;2259655;61;20439;-67
2024/02/15 02:15:41;0.00;0.00;0.62;0.00;0.00;0.62;1.90;1.40;;;23.00;28.40;;;;;;2258601;61;20828;-67
2024/02/15 02:18:26;0.00;0.00;0.62;0.00;0.00;0.62;1.60;1.00;;;23.00;28.40;;;;;;2259347;61;20368;-67
2024/02/15 02:21:10;0.00;0.00;0.62;0.00;0.00;0.62;2.70;2.07;;;23.00;28.40;;;;;;2259606;61;20447;-67
2024/02/15 02:23:57;0.00;0.00;0.62;0.00;0.00;0.62;2.50;1.30;;;23.00;28.40;;;;;;2259777;61;20360;-66
2024/02/15 02:26:43;0.00;0.00;0.62;0.00;0.00;0.62;1.60;1.10;;;23.00;28.30;;;;;;2260337;61;20465;-67
2024/02/15 02:29:30;0.00;0.00;0.62;0.00;0.00;0.62;2.50;1.40;;;23.00;28.40;;;;;;2260057;61;20361;-67
2024/02/15 02:32:15;0.00;0.00;0.62;0.00;0.00;0.62;1.90;1.30;;;23.00;28.40;;;;;;2259818;61;20417;-67
2024/02/15 02:34:59;0.00;0.00;0.62;0.00;0.00;0.62;2.10;1.37;;;23.00;28.40;;;;;;2260094;61;20824;-67
2024/02/15 02:37:44;0.00;0.00;0.62;0.00;0.00;0.62;1.87;1.20;;;23.00;28.40;;;;;;2259925;61;20813;-67
2024/02/15 02:44:55;0.00;0.00;0.62;0.00;0.00;0.62;1.80;1.03;;;23.00;28.40;;;;;;2259315;61;20754;-67
2024/02/15 02:47:39;0.00;0.00;0.62;0.00;0.00;0.62;1.60;1.10;;;23.00;28.40;;;;;;2260024;61;20369;-66
2024/02/15 02:50:24;0.00;0.00;0.62;0.00;0.00;0.62;1.77;1.20;;;23.00;28.40;;;;;;2259967;61;20404;-67
2024/02/15 02:53:10;0.00;0.00;0.62;0.00;0.00;0.62;1.67;1.10;;;23.00;28.40;;;;;;2259623;61;20364;-67
2024/02/15 02:55:56;0.00;0.00;0.62;0.00;0.00;0.62;1.60;1.00;;;23.00;28.40;;;;;;2260019;61;20364;-67
2024/02/15 02:58:44;0.00;0.00;0.62;0.00;0.00;0.62;1.90;1.20;;;23.00;28.40;;;;;;2259305;61;20400;-67
2024/02/15 03:01:30;0.00;0.00;0.62;0.00;0.00;0.62;1.90;1.20;;;23.00;28.40;;;;;;2259607;61;20485;-67
2024/02/15 03:04:18;0.00;0.00;0.62;0.00;0.00;0.62;1.60;1.13;;;23.00;28.40;;;;;;2259989;61;20820;-67
2024/02/15 03:07:05;0.00;0.00;0.62;0.00;0.00;0.62;1.87;1.40;;;23.00;28.40;;;;;;2259736;61;20420;-67
2024/02/15 03:09:50;0.00;0.00;0.62;0.00;0.00;0.62;1.80;1.10;;;23.00;28.90;;;;;;2259949;61;20775;-67
2024/02/15 03:12:37;0.00;0.00;0.62;0.00;0.00;0.62;1.80;1.07;;;23.00;28.40;;;;;;2260163;61;20388;-67
2024/02/15 03:15:22;0.00;0.00;0.62;0.00;0.00;0.62;1.70;0.97;;;23.00;28.40;;;;;;2259244;61;20388;-67
2024/02/15 03:18:08;0.00;0.00;0.62;0.00;0.00;0.62;1.70;1.20;;;23.00;28.40;;;;;;2260051;61;20411;-67
2024/02/15 03:20:53;0.00;0.00;0.62;0.00;0.00;0.62;1.87;1.30;;;23.00;28.40;;;;;;2259178;61;20641;-67
2024/02/15 03:23:38;0.00;0.00;0.62;0.00;0.00;0.62;1.97;1.03;;;23.00;28.40;;;;;;2259439;61;20361;-67
2024/02/15 03:26:33;0.00;0.00;0.62;0.00;0.00;0.62;1.60;1.03;;;23.00;28.40;;;;;;2259909;61;20806;-68
2024/02/15 03:29:20;0.00;0.00;0.62;0.00;0.00;0.62;1.60;1.13;;;23.00;28.40;;;;;;2259662;61;20357;-67
2024/02/15 03:32:06;0.00;0.00;0.62;0.00;0.00;0.62;1.70;1.10;;;23.00;28.40;;;;;;2259629;61;20973;-67
2024/02/15 03:34:54;0.00;0.00;0.62;0.00;0.00;0.62;1.90;1.10;;;23.00;28.90;;;;;;2259863;61;20422;-67
2024/02/15 03:37:39;0.00;0.00;0.62;0.00;0.00;0.62;1.60;1.10;;;23.00;28.40;;;;;;2259501;61;20396;-67
2024/02/15 03:40:27;0.00;0.00;0.62;0.00;0.00;0.62;1.80;1.03;;;23.00;28.40;;;;;;2259728;61;20377;-67
2024/02/15 03:43:12;0.00;0.00;0.62;0.00;0.00;0.62;1.80;1.03;;;23.00;28.40;;;;;;2259557;61;20864;-67
2024/02/15 03:45:58;0.00;0.00;0.62;0.00;0.00;0.62;2.00;1.07;;;23.00;28.40;;;;;;2259681;61;20368;-67
2024/02/15 03:48:44;0.00;0.00;0.62;0.00;0.00;0.62;1.70;1.10;;;23.00;28.40;;;;;;2259854;61;20960;-67
2024/02/15 03:51:31;0.00;0.00;0.62;0.00;0.00;0.62;1.60;1.10;;;23.00;28.40;;;;;;2259789;61;20380;-67
2024/02/15 03:54:16;0.00;0.00;0.62;0.00;0.00;0.62;1.60;1.10;;;23.00;28.50;;;;;;2259679;61;20369;-67
2024/02/15 03:57:01;0.00;0.00;0.62;0.00;0.00;0.62;2.00;1.30;;;23.00;29.00;;;;;;2259755;61;20372;-67
2024/02/15 03:59:50;0.00;0.00;0.62;0.00;0.00;0.62;1.77;1.30;;;23.00;29.00;;;;;;2259363;61;20419;-67
2024/02/15 04:02:35;0.00;0.00;0.62;0.00;0.00;0.62;1.83;1.00;;;23.00;28.40;;;;;;2259433;61;20389;-67
2024/02/15 04:05:21;0.00;0.00;0.62;0.00;0.00;0.62;1.60;1.00;;;23.00;28.50;;;;;;2259365;61;20373;-67
2024/02/15 04:08:08;0.00;0.00;0.62;0.00;0.00;0.62;1.90;1.33;;;23.00;28.50;;;;;;2259607;61;20361;-67
2024/02/15 04:10:53;0.00;0.00;0.62;0.00;0.00;0.62;1.60;1.03;;;23.00;28.50;;;;;;2259710;61;20931;-67
2024/02/15 04:13:38;0.00;0.00;0.62;0.00;0.00;0.62;1.53;0.90;;;23.00;28.40;;;;;;2259556;61;20369;-67
2024/02/15 04:16:22;0.00;0.00;0.62;0.00;0.00;0.62;1.53;0.93;;;23.00;28.50;;;;;;2259707;61;20411;-67
2024/02/15 04:19:07;0.00;0.00;0.62;0.00;0.00;0.62;1.50;1.00;;;23.00;28.50;;;;;;2259807;61;20420;-67
2024/02/15 04:21:51;0.00;0.00;0.62;0.00;0.00;0.62;1.50;0.90;;;23.00;28.50;;;;;;2259312;61;20408;-67
2024/02/15 04:24:40;0.00;0.00;0.62;0.00;0.00;0.62;1.77;1.20;;;23.00;28.40;;;;;;2259058;61;20387;-67
2024/02/15 04:27:25;0.00;0.00;0.62;0.00;0.00;0.62;1.80;1.10;;;23.00;28.50;;;;;;2259572;61;20412;-67
2024/02/15 04:30:11;0.00;0.00;0.62;0.00;0.00;0.62;1.50;1.00;;;23.00;28.50;;;;;;2259699;61;20396;-67
2024/02/15 04:32:56;0.00;0.00;0.62;0.00;0.00;0.62;1.40;0.80;;;23.00;28.50;;;;;;2259651;61;20388;-67
2024/02/15 04:35:41;0.00;0.00;0.62;0.00;0.00;0.62;1.70;0.83;;;23.00;28.50;;;;;;2259616;61;20368;-67
2024/02/15 04:38:25;0.00;0.00;0.62;0.00;0.00;0.62;1.40;0.80;;;23.00;28.50;;;;;;2259336;61;20397;-67
2024/02/15 04:41:11;0.00;0.00;0.62;0.00;0.00;0.62;1.60;1.00;;;23.10;28.50;;;;;;2259785;61;20389;-67
2024/02/15 04:43:56;0.00;0.00;0.62;0.00;0.00;0.62;1.40;0.80;;;23.00;28.50;;;;;;2259046;61;20396;-67
2024/02/15 04:46:41;0.00;0.00;0.62;0.00;0.00;0.62;1.43;0.90;;;23.00;28.40;;;;;;2259563;61;20400;-67
2024/02/15 04:49:28;0.00;0.00;0.62;0.00;0.00;0.62;1.50;0.90;;;23.00;28.50;;;;;;2259446;61;20458;-67
2024/02/15 04:52:14;0.00;0.00;0.62;0.00;0.00;0.62;1.63;1.10;;;23.10;29.10;;;;;;2259205;61;20951;-68
2024/02/15 04:54:59;0.00;0.00;0.62;0.00;0.00;0.62;1.50;0.90;;;23.00;28.50;;;;;;2259640;61;20424;-67
2024/02/15 04:57:47;0.00;0.00;0.62;0.00;0.00;0.62;1.50;0.90;;;23.10;28.50;;;;;;2259081;61;20365;-67
2024/02/15 05:00:31;0.00;0.00;0.62;0.00;0.00;0.62;1.40;0.80;;;23.00;28.50;;;;;;2259269;61;20397;-67
2024/02/15 05:03:17;0.00;0.00;0.62;0.00;0.00;0.62;1.70;0.80;;;23.00;28.50;;;;;;2259669;61;20361;-67
2024/02/15 05:06:04;0.00;0.00;0.62;0.00;0.00;0.62;1.70;0.87;;;23.00;28.50;;;;;;2259260;61;20439;-67
2024/02/15 05:08:49;0.00;0.00;0.62;0.00;0.00;0.62;1.60;1.00;;;23.10;28.50;;;;;;2259323;61;20365;-67
2024/02/15 05:11:36;0.00;0.00;0.62;0.00;0.00;0.62;1.40;0.80;;;23.00;28.50;;;;;;2259185;61;20380;-67
2024/02/15 05:14:23;0.00;0.00;0.62;0.00;0.00;0.62;2.07;1.20;;;23.00;28.40;;;;;;2259302;61;20799;-67
2024/02/15 05:17:11;0.00;0.00;0.62;0.00;0.00;0.62;1.30;0.80;;;23.10;28.50;;;;;;2259805;61;20368;-67
2024/02/15 05:19:58;0.00;0.00;0.62;0.00;0.00;0.62;1.40;0.80;;;23.10;28.50;;;;;;2259528;61;20412;-67
2024/02/15 05:22:45;0.00;0.00;0.62;0.00;0.00;0.62;1.50;0.87;;;23.10;28.50;;;;;;2259130;61;20392;-67
2024/02/15 05:25:32;0.00;0.00;0.62;0.00;0.00;0.62;1.63;0.97;;;23.00;28.50;;;;;;2259506;61;20755;-67
2024/02/15 05:28:18;0.00;0.00;0.62;0.00;0.00;0.62;1.50;0.97;;;23.10;28.50;;;;;;2259565;61;20781;-67
2024/02/15 05:31:12;0.00;0.00;0.62;0.00;0.00;0.62;1.47;0.77;;;23.00;28.40;;;;;;2259491;61;20459;-67
2024/02/15 05:33:57;0.00;0.00;0.62;0.00;0.00;0.62;1.43;0.80;;;23.10;28.50;;;;;;2259306;61;20866;-67
2024/02/15 05:36:42;0.00;0.00;0.62;0.00;0.00;0.62;1.30;0.70;;;23.00;29.00;;;;;;2259395;61;20461;-67
2024/02/15 05:39:27;0.00;0.00;0.62;0.00;0.00;0.62;1.40;0.80;;;23.10;28.50;;;;;;2259532;61;20431;-67
2024/02/15 05:42:11;0.00;0.00;0.62;0.00;0.00;0.62;1.40;0.80;;;23.10;28.50;;;;;;2259392;61;21022;-67
2024/02/15 05:44:59;0.00;0.00;0.62;0.00;0.00;0.62;1.50;0.83;;;23.10;28.50;;;;;;2258976;61;20464;-67
2024/02/15 05:47:45;0.00;0.00;0.62;0.00;0.00;0.62;1.40;0.87;;;23.10;28.50;;;;;;2259611;61;20492;-67
2024/02/15 05:50:31;0.00;0.00;0.62;0.00;0.00;0.62;1.60;0.90;;;23.10;28.50;;;;;;2259257;61;20799;-67
2024/02/15 05:53:15;0.00;0.00;0.62;0.00;0.00;0.62;1.50;0.90;;;23.10;28.50;;;;;;2259646;61;20400;-67
2024/02/15 05:56:00;0.00;0.00;0.62;0.00;0.00;0.62;1.50;1.00;;;23.10;28.50;;;;;;2259205;61;20834;-67
2024/02/15 05:58:44;0.00;0.00;0.62;0.00;0.00;0.62;1.57;1.00;;;23.10;29.00;;;;;;2259946;61;20823;-68
2024/02/15 06:01:29;0.00;0.00;0.62;0.00;0.00;0.62;1.47;0.90;;;23.10;28.50;;;;;;2260238;61;20782;-67
2024/02/15 06:04:16;0.00;0.00;0.62;0.00;0.00;0.62;1.70;1.00;;;23.10;28.50;;;;;;2259867;61;20391;-67
2024/02/15 06:07:01;0.00;0.00;0.62;0.00;0.00;0.62;1.40;0.80;;;23.10;28.50;;;;;;2259437;61;20862;-67
2024/02/15 06:09:46;0.00;0.00;0.62;0.00;0.00;0.62;1.40;0.90;;;23.10;28.50;;;;;;2260305;61;20360;-67
2024/02/15 06:12:31;0.00;0.00;0.62;0.00;0.00;0.62;1.80;1.00;;;23.10;28.50;;;;;;2259621;61;20450;-67
2024/02/15 06:15:17;0.00;0.00;0.62;0.00;0.00;0.62;1.60;0.83;;;23.10;28.50;;;;;;2260151;61;20400;-67
2024/02/15 06:18:08;0.00;0.00;0.62;0.00;0.00;0.62;1.97;1.07;;;23.10;28.50;;;;;;2260224;61;20447;-66
2024/02/15 06:20:57;0.00;0.00;0.62;0.00;0.00;0.62;1.57;0.90;;;23.10;28.50;;;;;;2259519;61;20451;-66
2024/02/15 06:23:41;0.00;0.00;0.62;0.00;0.00;0.62;1.63;1.00;;;23.10;28.50;;;;;;2297181;40;20447;-71
2024/02/15 06:26:26;0.00;0.00;0.62;0.00;0.00;0.62;1.40;0.80;;;23.10;28.50;;;;;;2260730;61;20393;-69
2024/02/15 06:41:29;0.00;0.00;0.62;0.00;0.00;0.62;1.50;0.90;;;23.10;28.50;;;;;;2271680;61;20376;-71
2024/02/15 06:44:13;0.00;0.00;0.62;0.00;0.00;0.62;1.50;0.93;;;23.10;28.50;;;;;;2256763;61;20924;-69
2024/02/15 06:46:59;0.00;0.00;0.62;0.00;0.00;0.62;1.50;0.90;;;23.10;28.50;;;;;;2256699;61;20767;-68
2024/02/15 06:49:45;0.00;0.00;0.62;0.00;0.00;0.62;1.60;1.00;;;23.10;28.50;;;;;;2256986;61;20377;-69
2024/02/15 06:52:30;0.00;0.00;0.62;0.00;0.00;0.62;1.50;1.17;;;23.00;29.00;;;;;;2257023;61;20386;-72
2024/02/15 06:55:17;0.00;0.00;0.62;0.00;0.00;0.62;1.40;0.83;;;23.10;28.50;;;;;;2256989;61;20781;-69
2024/02/15 06:58:02;0.00;0.00;0.62;0.00;0.00;0.62;1.40;0.90;;;23.00;29.00;;;;;;2253631;61;20404;-69
2024/02/15 07:00:50;0.00;0.00;0.62;0.00;0.00;0.62;1.57;0.97;;;23.10;28.50;;;;;;2256806;61;20944;-69
2024/02/15 07:03:34;0.00;0.00;0.62;0.00;0.00;0.62;1.57;0.93;;;23.10;28.50;;;;;;2256919;61;20405;-70
2024/02/15 07:06:18;0.00;0.00;0.62;0.00;0.00;0.62;2.27;1.20;;;23.10;29.00;;;;;;2256704;61;20496;-69
2024/02/15 07:09:03;0.00;0.00;0.62;0.00;0.00;0.62;2.00;1.40;;;23.10;28.50;;;;;;2256992;61;20397;-69
2024/02/15 07:11:49;0.00;0.00;0.62;0.00;0.00;0.62;1.50;1.00;;;23.10;28.50;;;;;;2253536;61;20354;-69
2024/02/15 07:14:34;0.00;0.00;0.62;0.00;0.00;0.62;1.80;1.27;;;23.10;28.50;;;;;;2256634;61;20358;-70
2024/02/15 07:17:19;0.00;0.00;0.62;0.00;0.00;0.62;1.70;1.10;;;23.10;28.50;;;;;;2256780;61;20845;-69
2024/02/15 07:20:05;0.00;0.00;0.62;0.00;0.00;0.62;1.80;1.10;;;23.10;28.50;;;;;;2256552;61;20514;-69
2024/02/15 07:22:49;0.00;0.00;0.62;0.00;0.00;0.62;1.80;1.30;;;23.10;28.50;;;;;;2256644;61;20498;-70
2024/02/15 07:25:35;0.00;0.00;0.62;0.00;0.00;0.62;1.70;1.00;;;23.10;28.50;;;;;;2256313;61;20374;-70
2024/02/15 07:28:21;0.00;0.00;0.62;0.00;0.00;0.62;1.70;1.00;;;23.10;28.50;;;;;;2256196;61;20374;-69
2024/02/15 07:31:06;0.00;0.00;0.62;0.00;0.00;0.62;1.83;1.20;;;23.10;28.50;;;;;;2256582;61;20342;-72
2024/02/15 07:33:51;0.00;0.00;0.62;0.00;0.00;0.62;1.60;1.20;;;23.10;28.50;;;;;;2256233;61;20425;-69
2024/02/15 07:36:36;0.00;0.00;0.62;0.00;0.00;0.62;2.30;1.70;;;23.10;28.50;;;;;;2256292;61;20362;-69
2024/02/15 07:39:24;0.00;0.00;0.62;0.00;0.00;0.62;1.93;1.30;;;23.10;28.50;;;;;;2256605;61;20566;-69
2024/02/15 07:42:09;0.00;0.00;0.62;0.00;0.00;0.62;2.77;1.60;;;23.10;28.50;;;;;;2259591;61;20954;-69
2024/02/15 07:44:54;0.00;0.00;0.62;0.00;0.00;0.62;2.70;1.20;;;23.10;28.50;;;;;;2254200;61;20364;-69
2024/02/15 07:47:39;0.00;0.00;0.62;0.00;0.00;0.62;2.70;1.70;;;23.10;28.50;;;;;;2257393;61;20372;-74
2024/02/15 07:50:24;0.00;0.00;0.62;0.00;0.00;0.62;2.10;1.40;;;23.10;28.50;;;;;;2256979;61;20431;-71
2024/02/15 07:53:10;0.00;0.00;0.62;0.00;0.00;0.62;2.37;1.53;;;23.10;28.50;;;;;;2260262;61;20383;-69
2024/02/15 07:55:55;0.00;0.00;0.62;0.00;0.00;0.62;2.37;1.60;;;23.10;28.50;;;;;;2259959;61;20403;-69
2024/02/15 07:58:41;0.00;0.00;0.62;0.00;0.00;0.62;2.03;1.50;;;23.10;28.50;;;;;;2260448;61;20349;-69
2024/02/15 08:01:27;0.00;0.00;0.62;0.00;0.00;0.62;2.50;1.63;;;23.10;28.60;;;;;;2260331;61;20914;-69
2024/02/15 08:04:12;0.00;0.00;0.62;0.00;0.00;0.62;2.43;1.73;;;23.10;28.50;;;;;;2260077;61;20480;-69
2024/02/15 08:06:57;0.00;0.00;0.62;0.00;0.00;0.62;2.50;1.93;;;23.10;28.50;;;;;;2260346;61;20349;-69
2024/02/15 08:09:43;0.00;0.00;0.62;0.00;0.00;0.62;2.37;2.00;;;23.10;28.50;;;;;;2257254;61;20799;-70
2024/02/15 08:12:27;0.00;0.00;0.62;0.00;0.00;0.62;2.30;2.00;;;23.10;28.50;;;;;;2260128;61;20384;-70
2024/02/15 08:15:13;0.00;0.00;0.62;0.00;0.00;0.62;2.03;1.67;;;23.10;28.50;;;;;;2260146;61;20364;-69
2024/02/15 08:17:59;0.00;0.00;0.62;0.00;0.00;0.62;2.73;2.00;;;23.10;28.50;;;;;;2257165;61;20381;-69
2024/02/15 08:20:44;0.00;0.00;0.62;0.00;0.00;0.62;3.40;2.30;;;23.10;28.50;;;;;;2259903;61;20937;-69
2024/02/15 08:23:29;0.00;0.00;0.62;0.00;0.00;0.62;2.23;1.70;;;23.10;28.50;;;;;;2260277;61;20392;-70
2024/02/15 08:26:14;0.00;0.00;0.62;0.00;0.00;0.62;2.33;1.83;;;23.10;28.50;;;;;;2256854;61;20831;-68
2024/02/15 08:28:58;0.00;0.00;0.62;0.00;0.00;0.62;2.60;2.00;;;23.10;28.50;;;;;;2260161;61;20411;-72
2024/02/15 08:31:43;0.00;0.00;0.62;0.00;0.00;0.62;2.87;2.10;;;23.10;28.50;;;;;;2257139;61;20883;-69
2024/02/15 08:34:29;0.00;0.00;0.62;0.00;0.00;0.62;2.53;1.80;;;23.10;28.50;;;;;;2259902;61;20376;-68
2024/02/15 08:37:14;0.00;0.00;0.62;0.00;0.00;0.62;3.10;2.03;;;23.10;28.50;;;;;;2260176;61;20400;-69
2024/02/15 08:39:59;0.00;0.00;0.62;0.00;0.00;0.62;4.47;2.40;;;23.10;28.50;;;;;;2260378;61;20508;-68
2024/02/15 08:42:45;0.00;0.00;0.62;0.00;0.00;0.62;2.93;1.90;;;23.10;28.50;;;;;;2493261;53;20386;-69
2024/02/15 08:45:30;0.00;0.00;0.62;0.00;0.00;0.62;3.30;1.77;;;23.20;28.60;;;;;;2256278;61;20362;-69
2024/02/15 08:48:15;0.00;0.00;0.62;0.00;0.00;0.62;3.40;1.90;;;23.20;28.60;;;;;;2256039;61;20497;-69
2024/02/15 08:51:01;0.00;0.00;0.62;0.00;0.00;0.62;2.83;2.30;;;23.10;28.50;;;;;;2256048;61;20429;-68
2024/02/15 08:53:46;0.00;0.00;0.62;0.00;0.00;0.62;2.57;1.90;;;23.20;28.60;;;;;;2256352;61;20401;-68
2024/02/15 08:56:33;0.00;0.00;0.62;0.00;0.00;0.62;2.70;1.97;;;23.20;28.60;;;;;;2255935;61;20901;-68
2024/02/15 08:59:18;0.00;0.00;0.62;0.00;0.00;0.62;2.87;2.20;;;23.20;28.60;;;;;;2255671;61;20350;-68
2024/02/15 09:02:05;0.00;0.00;0.62;0.00;0.00;0.62;2.80;2.03;;;23.20;28.60;;;;;;2256223;61;20390;-67
2024/02/15 09:04:50;0.00;0.00;0.62;0.00;0.00;0.62;2.50;2.17;;;23.20;28.60;;;;;;2255689;61;20461;-70
2024/02/15 09:07:37;0.00;0.00;0.62;0.00;0.00;0.62;3.17;2.57;;;23.20;28.60;;;;;;2256187;61;20346;-70
2024/02/15 09:10:22;0.00;0.00;0.62;0.00;0.00;0.62;2.73;2.33;;;23.20;28.60;;;;;;2256042;61;20401;-68
2024/02/15 09:13:07;0.00;0.00;0.62;0.00;0.00;0.62;3.23;2.37;;;23.20;28.60;;;;;;2255886;61;20374;-67
2024/02/15 09:15:52;0.00;0.00;0.62;0.00;0.00;0.62;4.43;2.70;;;23.20;28.60;;;;;;2256158;61;20437;-68
2024/02/15 09:18:38;0.00;0.00;0.62;0.00;0.00;0.62;3.30;2.70;;;23.20;29.10;;;;;;2255953;61;21061;-68
2024/02/15 09:21:24;0.00;0.00;0.62;0.00;0.00;0.62;3.20;2.50;;;23.20;28.60;;;;;;2252705;61;20429;-68
2024/02/15 09:24:10;0.00;0.00;0.62;0.00;0.00;0.62;3.20;2.50;;;23.20;28.60;;;;;;2255960;61;20405;-69
2024/02/15 09:26:55;0.00;0.00;0.62;0.00;0.00;0.62;3.23;2.80;;;23.20;28.60;;;;;;2256201;61;20369;-68
2024/02/15 09:29:41;0.00;0.00;0.62;0.00;0.00;0.62;3.53;2.53;;;23.20;28.60;;;;;;2257323;61;20946;-68
2024/02/15 09:32:25;0.00;0.00;0.62;0.00;0.00;0.62;3.63;3.00;;;23.20;28.50;;;;;;2257498;61;20454;-69
2024/02/15 09:35:11;0.00;0.00;0.62;0.00;0.00;0.62;2.60;2.40;;;23.20;28.60;;;;;;2253739;61;20830;-68
2024/02/15 09:37:56;0.00;0.00;0.62;0.00;0.00;0.62;3.10;2.53;;;23.20;28.50;;;;;;2257080;61;20384;-67
2024/02/15 09:40:43;0.00;0.00;0.62;0.00;0.00;0.62;2.70;2.40;;;23.20;29.00;;;;;;2257164;61;20966;-68
2024/02/15 09:43:29;0.00;0.00;0.62;0.00;0.00;0.62;3.43;2.80;;;23.30;28.60;;;;;;2260641;61;20411;-68
2024/02/15 09:46:14;0.00;0.00;0.62;0.00;0.00;0.62;3.90;2.70;;;23.20;28.50;;;;;;2260987;61;20360;-68
2024/02/15 09:48:58;0.00;0.00;0.62;0.00;0.00;0.62;5.10;2.97;;;23.20;28.50;;;;;;2260786;61;20928;-68
2024/02/15 09:51:45;0.00;0.00;0.62;0.00;0.00;0.62;3.83;3.00;;;23.20;28.50;;;;;;2257685;61;20392;-68
2024/02/15 09:54:30;0.00;0.00;0.62;0.00;0.00;0.62;4.07;2.73;;;23.30;29.20;;;;;;2260698;61;20353;-68
2024/02/15 09:57:18;0.00;0.00;0.62;0.00;0.00;0.62;3.93;2.70;;;23.20;28.50;;;;;;2260608;61;20895;-68
2024/02/15 10:00:07;0.00;0.00;0.62;0.00;0.00;0.62;3.93;2.93;;;23.30;28.60;;;;;;2261037;61;20457;-69
2024/02/15 10:02:58;0.00;0.00;0.62;0.00;0.00;0.62;3.80;2.90;;;23.20;28.50;;;;;;2257596;61;20986;-68
2024/02/15 10:05:42;0.00;0.00;0.62;0.00;0.00;0.62;4.57;3.40;;;23.30;28.60;;;;;;2260813;61;20406;-68
2024/02/15 10:08:27;0.00;0.00;0.62;0.00;0.00;0.62;3.70;2.90;;;23.30;28.60;;;;;;2261222;61;20450;-69
2024/02/15 10:11:12;0.00;0.00;0.62;0.00;0.00;0.62;3.27;2.63;;;23.30;28.60;;;;;;2260465;61;20361;-68
2024/02/15 10:14:10;0.00;0.00;0.62;0.00;0.00;0.62;4.53;3.10;;;23.30;28.60;;;;;;2261982;61;20420;-69
2024/02/15 10:16:56;0.00;0.00;0.62;0.00;0.00;0.62;3.90;3.00;;;23.30;28.60;;;;;;2257769;61;20895;-69
2024/02/15 10:19:43;0.00;0.00;0.62;0.00;0.00;0.62;4.07;2.60;;;23.30;28.60;;;;;;2260795;61;20428;-70
2024/02/15 10:22:28;0.00;0.00;0.62;0.00;0.00;0.62;3.60;2.83;;;23.30;28.60;;;;;;2257857;61;20392;-69
2024/02/15 10:25:14;0.00;0.00;0.62;0.00;0.00;0.62;3.90;2.57;;;23.30;28.60;;;;;;2260229;61;20752;-71
2024/02/15 10:28:02;0.00;0.00;0.62;0.00;0.00;0.62;4.03;3.50;;;23.30;28.60;;;;;;2507514;53;20421;-67
2024/02/15 10:30:50;0.00;0.00;0.62;0.00;0.00;0.62;4.63;3.47;;;23.30;28.60;;;;;;2261243;61;20365;-71
2024/02/15 10:33:35;0.00;0.00;0.62;0.00;0.00;0.62;3.47;3.10;;;23.30;28.60;;;;;;2257268;61;20397;-70
2024/02/15 10:36:24;0.00;0.00;0.62;0.00;0.00;0.62;4.67;3.13;;;23.30;28.60;;;;;;2258059;61;20428;-69
2024/02/15 10:39:31;0.00;0.00;0.62;0.00;0.00;0.62;3.33;2.63;;;23.30;28.60;;;;;;2260620;61;20380;-67
2024/02/15 10:42:26;0.00;0.00;0.62;0.00;0.00;0.62;4.93;3.43;;;23.30;28.60;;;;;;2260745;61;20389;-68
2024/02/15 10:45:14;0.00;0.00;0.62;0.00;0.00;0.62;3.83;3.20;;;23.30;28.60;;;;;;2261505;61;20389;-68
2024/02/15 10:48:00;0.00;0.00;0.62;0.00;0.00;0.62;4.80;2.90;;;23.30;28.60;;;;;;2261991;61;20364;-68
2024/02/15 10:50:47;0.00;0.00;0.62;0.00;0.00;0.62;4.30;3.33;;;23.30;28.60;;;;;;2260880;61;20389;-67
2024/02/15 10:53:37;0.00;0.00;0.62;0.00;0.00;0.62;4.17;2.80;;;23.30;28.60;;;;;;2262776;61;20850;-68
2024/02/15 10:56:28;0.00;0.00;0.62;0.00;0.00;0.62;3.93;3.20;;;23.30;28.60;;;;;;2262810;61;20362;-69
2024/02/15 10:59:19;0.00;0.00;0.62;0.00;0.00;0.62;4.20;3.80;;;23.30;28.60;;;;;;2263706;61;20418;-69
2024/02/15 11:02:23;0.00;0.00;0.62;0.00;0.00;0.62;5.57;4.20;;;23.30;28.60;;;;;;2262492;61;20392;-68
2024/02/15 11:05:10;0.00;0.00;0.62;0.00;0.00;0.62;5.00;3.83;;;23.30;28.60;;;;;;2263459;61;20361;-68
2024/02/15 11:07:55;0.00;0.00;0.62;0.00;0.00;0.62;6.60;4.23;;;23.30;28.60;;;;;;2263999;61;20393;-68
2024/02/15 11:10:43;0.00;0.00;0.62;0.00;0.00;0.62;5.17;4.50;;;23.30;28.60;;;;;;2263712;61;20344;-68